Weather observations for the past three days for
Los Alamos Airport
Imperial (Metric)
Date Time (mdt) Wind (mph) Vis. (mi.) Weather Sky Cond. Temperature (ºF) Relative Humidity Wind Chill (°F) Heat Index (°F) Pressure Precipitation (in)
Air Dwpt 6 hour altimeter (in) sea level (mb) 1 hr 3 hr 6 hr
Max. Min.
07 21:35 W 16 10.00 Fair CLR 59.2 4.1 11% 30.07 0.0
07 20:55 W 12 10.00 Fair CLR 61 3.9 10% 30.06 0.0
07 20:35 W 13 10.00 Fair CLR 61.7 5.7 11% 30.05 0.0
07 20:15 NW 10 10.00 Fair CLR 62.2 7.3 11% 30.04 0.0
07 19:50 W 8 10.00 Fair CLR 63.9 3.7 9% 30.03 0.0
07 19:35 NE 3 10.00 Fair CLR 64.6 4.5 9% 30.03 0.0
07 19:15 Calm 10.00 Fair CLR 65.5 5.2 9% 30.02 0.0
07 18:55 E 7 10.00 Fair CLR 66.4 5.7 9% 30.02 0.0
07 18:35 Vrbl 6 10.00 Fair CLR 66.7 4.1 8% 30.02 0.0
07 18:15 Vrbl 3 10.00 Fair CLR 67.1 4.8 8% 30.03 0.0
07 17:55 S 9 10.00 Fair CLR 67.5 5 67.8 55.6 8% 30.03 0.0
07 17:35 SE 8 10.00 Fair CLR 67.5 6.6 9% 30.03 0.0
07 17:15 Vrbl 6 10.00 Fair CLR 66.9 10.6 11% 30.04 0.0
07 16:55 S 8 10.00 Fair CLR 66.4 14 13% 30.05 0.0
07 16:35 SE 10 G 17 10.00 Fair CLR 66.4 14.7 13% 30.05 0.0
07 16:15 S 9 G 18 10.00 Fair CLR 65.7 17.1 15% 30.05 0.0
07 15:55 SE 8 10.00 Fair CLR 65.3 20.1 18% 30.06 0.0
07 15:35 S 8 10.00 Fair CLR 65.8 20.8 18% 30.07 0.0
07 15:15 Vrbl 5 10.00 Fair CLR 64.6 21.4 19% 30.09 0.0
07 14:55 Vrbl 7 10.00 Fair CLR 64.8 19.4 17% 30.1 0.0
07 14:35 SW 9 10.00 Fair CLR 65.1 18.7 17% 30.1 0.0
07 14:15 Calm 10.00 Fair CLR 63 18.7 18% 30.11 0.0
07 13:35 Vrbl 6 10.00 Fair CLR 62.1 19.6 19% 30.13 0.0
07 13:15 Vrbl 3 10.00 Fair CLR 60.4 19 20% 30.14 0.0
07 12:55 NE 7 10.00 Fair CLR 59.7 19.8 21% 30.14 0.0
07 12:35 Calm 10.00 Fair CLR 57.7 19 22% 30.15 0.0
07 12:15 Vrbl 3 10.00 Fair CLR 57.4 19.6 23% 30.16 0.0
07 11:55 E 8 10.00 Fair CLR 55.2 19.2 55.8 34.5 24% 30.17 0.0
07 11:15 Vrbl 6 10.00 Fair CLR 52.5 19.2 27% 30.19 0.0
07 10:55 NE 12 10.00 Fair CLR 51.3 19.9 29% 30.19 0.0
07 10:35 NE 9 G 17 10.00 Fair CLR 50.7 19.4 29% 30.2 0.0
07 09:55 N 10 G 20 10.00 Fair CLR 47.8 18.3 31% 44 30.2 0.0
07 09:35 N 15 G 21 10.00 Fair CLR 48 19.4 32% 43 30.21 0.0
07 09:15 NE 12 G 18 10.00 Fair CLR 46.6 23.2 40% 42 30.21 0.0
07 08:55 N 14 10.00 Fair CLR 45.9 22.6 40% 40 30.21 0.0
07 08:35 N 14 10.00 Fair CLR 44.6 23.7 44% 39 30.21 0.0
07 08:15 NE 8 10.00 Fair CLR 42.6 25.5 51% 38 30.21 0.0
07 07:55 N 6 10.00 Fair CLR 39.2 26.2 60% 36 30.22 0.0
07 07:35 N 3 10.00 Fair CLR 38.1 25.7 61% 30.22 0.0
07 07:15 Calm 10.00 Fair CLR 36.5 24.4 62% 30.22 0.0
07 06:55 Calm 10.00 Fair CLR 35.4 24.6 65% 30.21 0.0
07 06:35 NE 3 10.00 Fair CLR 35.1 25 67% 30.21 0.0
07 06:15 E 3 10.00 Fair CLR 35.8 24.1 62% 30.21 0.0
07 05:55 N 5 10.00 Fair CLR 38.7 22.8 42.1 36 53% 36 30.21 0.0
07 05:35 N 7 10.00 Fair CLR 38.5 22.8 53% 34 30.2 0.0
07 04:55 NW 5 10.00 Fair CLR 37.2 24.8 61% 34 30.2 0.0
07 04:35 Calm 10.00 Fair CLR 36.1 25.7 66% 30.2 0.0
07 04:15 SE 3 10.00 Fair CLR 36.3 26.2 67% 30.21 0.0
07 03:55 Vrbl 7 10.00 Fair CLR 40.8 23 49% 37 30.2 0.0
07 03:35 N 10 10.00 Fair CLR 41.2 23 48% 36 30.2 0.0
07 03:15 N 10 10.00 Fair CLR 40.6 23.5 51% 35 30.19 0.0
07 02:55 N 12 10.00 Fair CLR 40.8 24.1 51% 35 30.19 0.0
07 02:35 N 10 10.00 Fair CLR 40.6 23.9 51% 35 30.19 0.0
07 02:15 Vrbl 7 10.00 Fair CLR 40.5 24.1 52% 36 30.19 0.0
07 01:55 N 10 10.00 Fair CLR 40.6 25.7 55% 35 30.19 0.0
07 01:35 N 8 10.00 Fair CLR 40.8 26.2 56% 36 30.19 0.0
07 01:15 N 8 10.00 Fair CLR 40.8 27.1 58% 36 30.19 0.0
07 00:55 N 6 10.00 Fair CLR 41.4 27.5 58% 38 30.19 0.0
07 00:35 N 5 10.00 Fair CLR 41.7 27.7 58% 39 30.18 0.0
07 00:15 N 9 10.00 Fair CLR 41.9 27.1 56% 37 30.18 0.0
06 23:55 N 12 10.00 Fair CLR 42.6 27 55.2 40.6 54% 37 30.17 0.0
06 23:35 Vrbl 7 10.00 Fair CLR 42.8 26.8 53% 39 30.17 0.0
06 23:15 Vrbl 6 10.00 Fair CLR 42.4 26.6 54% 39 30.17 0.0
06 22:55 NW 3 10.00 Fair CLR 41.5 28.6 60% 30.16 0.0
06 22:35 Calm 10.00 Fair CLR 41.9 29.5 61% 30.16 0.0
06 22:15 NW 5 10.00 Fair CLR 41.9 29.8 62% 40 30.15 0.0
06 21:55 Vrbl 6 10.00 Fair CLR 42.3 29.8 62% 39 30.14 0.0
06 21:35 N 7 10.00 Fair CLR 42.3 29.8 62% 38 30.14 0.0
06 21:15 Vrbl 5 10.00 Fair CLR 43 29.1 58% 41 30.12 0.0
06 20:55 N 9 10.00 Fair CLR 45.9 25.2 44% 42 30.11 0.0
06 20:35 W 8 10.00 Fair CLR 49.5 16.2 26% 47 30.09 0.0
06 20:15 W 7 10.00 Fair CLR 49.8 17.6 28% 47 30.08 0.0
06 19:55 NW 12 G 18 10.00 Fair CLR 50.9 18 27% 30.07 0.0
06 19:35 W 10 10.00 Fair CLR 51.3 21.9 32% 30.06 0.0
06 19:15 NW 12 G 20 10.00 Fair CLR 51.1 23 33% 30.05 0.0
06 18:55 W 17 G 29 10.00 Mostly Cloudy FEW060 BKN080 BKN095 51.6 23.4 33% 30.04 0.0
06 18:35 W 18 G 29 10.00 Mostly Cloudy BKN080 51.6 22.5 32% 30.06 0.0
06 18:15 W 23 G 30 10.00 Mostly Cloudy and Breezy BKN080 55 21.9 28% 30.04 0.0
06 17:35 NW 10 10.00 Mostly Cloudy BKN080 56.3 23.5 28% 30.02 0.0
06 17:15 NW 17 G 25 10.00 Partly Cloudy SCT080 SCT140 55.2 23.2 29% 30.01 0.0
06 16:55 NW 14 G 20 10.00 A Few Clouds FEW140 57 24.3 28% 30 0.0
06 16:35 W 17 G 32 10.00 A Few Clouds FEW150 57.4 25.7 30% 29.99 0.0
06 16:15 Vrbl 7 10.00 Partly Cloudy SCT090 SCT100 55.8 29.5 37% 29.99 0.0
06 15:55 W 14 G 33 10.00 Mostly Cloudy FEW041 BKN080 BKN095 52.5 29.1 41% 30 0.0
06 15:35 W 28 G 36 10.00 Light Rain and Windy FEW046 SCT060 BKN070 OVC085 51.1 30.9 46% 30 0.0
06 15:15 W 18 G 26 10.00 Mostly Cloudy BKN070 59.5 23.7 25% 29.97 0.0
06 14:55 W 9 G 23 10.00 Mostly Cloudy SCT070 BKN085 59.4 25.5 27% 29.97 0.0
06 14:35 SW 12 G 28 10.00 Mostly Cloudy BKN080 BKN090 58.8 25.3 28% 29.97 0.0
06 14:15 W 10 G 23 10.00 Mostly Cloudy SCT060 BKN085 58.1 25.9 29% 29.97 0.0
06 13:55 S 7 10.00 Mostly Cloudy SCT060 BKN080 53.6 28.9 39% 29.98 0.0
06 13:35 W 12 10.00 Mostly Cloudy SCT060 SCT075 BKN100 54.7 30.4 40% 29.99 0.0
06 13:15 NW 21 G 26 10.00 Mostly Cloudy and Breezy BKN060 53.2 29.1 40% 30 0.0
06 12:55 SW 12 G 21 10.00 Mostly Cloudy BKN060 BKN070 57.4 28 33% 29.99 0.0
06 12:35 NW 13 G 25 10.00 Mostly Cloudy BKN060 54.5 26.8 34% 30 0.0
06 12:15 W 15 G 24 10.00 Mostly Cloudy BKN060 56.5 26.8 32% 29.99 0.0
06 11:55 SW 10 G 22 10.00 Fair CLR 54.9 26.1 56.1 39.2 33% 29.99 0.0
06 11:35 W 15 G 30 10.00 Fair CLR 54.7 25.7 33% 29.99 0.0
06 11:15 W 21 G 33 10.00 Fair and Breezy CLR 55 25.9 32% 29.99 0.0
06 10:55 W 18 G 35 10.00 Fair CLR 54.3 27.1 35% 29.98 0.0
06 10:35 SW 17 G 22 10.00 Fair CLR 52.9 28 38% 29.98 0.0
06 10:15 SW 9 10.00 A Few Clouds FEW050 50.4 28.6 43% 29.98 0.0
06 09:55 W 10 10.00 A Few Clouds FEW042 49.1 28.4 45% 45 29.99 0.0
06 09:35 NW 6 G 17 10.00 A Few Clouds FEW042 48 31.3 52% 46 29.99 0.0
06 09:15 Vrbl 6 10.00 A Few Clouds FEW042 47.5 30 51% 45 29.99 0.0
06 08:55 Calm 10.00 A Few Clouds FEW044 45.7 32.2 59% 30 0.0
06 08:35 Vrbl 7 10.00 Fair CLR 45.3 30.7 57% 42 29.99 0.0
06 08:15 Vrbl 5 10.00 Fair CLR 44.4 30.7 59% 42 29.99 0.0
06 07:55 W 8 10.00 A Few Clouds FEW070 43.2 28.6 57% 39 29.99 0.0
06 07:35 SW 9 10.00 Partly Cloudy SCT070 SCT090 43.7 28.2 55% 39 29.99 0.0
06 07:15 N 7 10.00 Overcast BKN070 OVC090 41.2 29.8 64% 37 29.98 0.0
06 06:55 Calm 10.00 Overcast FEW034 SCT041 SCT050 OVC065 40.3 29.1 64% 29.98 0.0
06 06:35 E 5 10.00 Overcast SCT035 BKN045 OVC055 41.2 28.9 62% 39 29.98 0.0
06 06:15 Calm 10.00 Light Rain FEW037 BKN050 OVC100 41.4 28.4 60% 29.97 0.0
06 05:55 S 9 10.00 Overcast FEW037 OVC100 40.8 28 42.6 38.3 60% 36 29.96 0.0
06 05:35 S 10 10.00 Overcast OVC100 39.7 28.9 65% 34 29.95 0.0
06 05:15 Vrbl 6 10.00 Overcast OVC110 40.6 28 61% 37 29.96 0.0
06 04:55 SW 13 10.00 Partly Cloudy SCT110 40.3 28.2 62% 34 29.95 0.0
06 04:35 W 10 G 17 10.00 A Few Clouds FEW140 40.8 27.7 60% 35 29.95 0.0
06 04:15 S 6 10.00 Fair CLR 39.7 28.6 64% 36 29.96 0.0
06 03:55 SE 5 10.00 Fair CLR 39.6 29.1 66% 37 29.96 0.0
06 03:35 SE 5 10.00 Fair CLR 40.3 28.2 62% 38 29.96 0.0
06 03:15 S 6 10.00 Fair CLR 40.6 28.4 62% 37 29.95 0.0
06 02:55 S 8 10.00 Fair CLR 39.7 31.1 71% 35 29.95 0.0
06 02:35 S 7 10.00 Fair CLR 39.7 32.7 76% 35 29.96 0.0
06 02:15 S 7 10.00 Fair CLR 40.3 32.5 74% 36 29.96 0.0
06 01:55 S 10 10.00 Fair CLR 39.7 34.9 83% 34 29.96 0.0
06 01:35 S 10 10.00 Fair CLR 39.6 35.1 84% 34 29.96 0.0
06 01:15 S 7 10.00 Fair CLR 39.9 34.7 82% 36 29.97 0.0
06 00:55 S 9 10.00 Fair CLR 40.5 33.8 77% 35 29.97 0.0
06 00:35 S 10 10.00 Fair CLR 40.6 34.3 78% 35 29.97 0.0
06 00:15 S 10 10.00 Fair CLR 41.7 33.6 73% 36 29.96 0.0
05 23:55 S 10 10.00 Fair CLR 44.4 29.7 55.9 42.4 56% 40 29.96 0.0 0.02
05 23:35 W 16 G 23 10.00 Fair CLR 44.6 29.5 55% 38 29.95 0.0
05 23:15 W 8 G 21 10.00 Mostly Cloudy FEW028 SCT042 BKN055 BKN090 BKN110 44.4 32.5 63% 40 29.95 0.0
05 22:55 SW 6 10.00 Light Rain FEW025 SCT031 OVC043 44.6 33.8 66% 42 29.96 0.0
05 22:35 SW 10 10.00 Rain FEW014 BKN040 OVC049 44.8 34.7 68% 40 29.97 0.0
05 22:15 W 22 G 28 10.00 Overcast and Breezy FEW032 SCT050 BKN060 BKN080 OVC100 44.6 35.4 70% 37 29.96 0.0
05 21:55 W 14 0.00 Mostly Cloudy FEW016 BKN090 43.2 35.8 75% 37 29.93 0.0 0.02
05 21:35 W 12 0.00 Mostly Cloudy SCT017 BKN030 BKN085 42.4 37.2 82% 37 29.93 0.0 0.02
05 21:15 SW 15 G 20 8.00 Rain FEW019 SCT025 BKN035 OVC080 42.8 37.8 82% 36 29.96 0.0 0.01
05 20:55 W 8 8.00 Rain FEW005 SCT021 BKN031 OVC080 43.2 36.9 79% 39 29.93 0.0
05 20:35 W 10 G 26 10.00 Rain SCT019 BKN032 BKN042 BKN055 OVC070 44.1 35.6 72% 39 29.93 0.0
05 20:15 W 16 G 26 10.00 Mostly Cloudy FEW034 SCT070 BKN085 BKN160 45.1 34.2 66% 39 29.9 0.0
05 19:55 W 15 G 22 10.00 Drizzle FEW005 BKN035 BKN075 43 37 80% 36 29.89 0.0
05 19:35 W 15 G 26 10.00 Mostly Cloudy SCT039 SCT050 BKN075 BKN110 45.5 35.4 68% 39 29.91 0.0
05 19:15 SW 24 G 29 10.00 Mostly Cloudy and Breezy FEW043 SCT050 BKN065 BKN085 50 29.8 46% 43 29.9 0.0
05 18:55 W 15 10.00 Partly Cloudy FEW070 SCT085 SCT110 51.6 31.6 47% 29.88 0.0
05 18:35 W 9 10.00 Fair CLR 51.4 31.6 47% 29.88 0.0
05 18:15 SW 14 10.00 Fair CLR 55.9 29.3 36% 29.87 0.0
05 17:55 SW 20 G 25 10.00 Fair CLR 55.6 30.2 58.3 51.6 38% 29.86 0.0
05 17:35 SW 9 10.00 A Few Clouds FEW043 55.2 31.8 41% 29.85 0.0
05 17:15 SW 13 G 24 10.00 Light Rain FEW043 BKN065 BKN075 OVC100 52.2 33.6 49% 29.86 0.0
05 16:55 NW 12 G 20 10.00 Overcast BKN065 OVC120 57.9 30.2 35% 29.84 0.0
05 16:35 S 10 G 18 10.00 Overcast BKN065 BKN080 OVC100 57.7 33.1 39% 29.84 0.0
05 16:15 S 8 10.00 Overcast BKN060 OVC075 56.7 32.7 40% 29.85 0.0
05 15:55 S 7 10.00 Overcast BKN060 OVC075 56.3 31.1 38% 29.86 0.0
05 15:35 Calm 10.00 Overcast BKN060 BKN075 OVC100 56.1 31.5 39% 29.87 0.0
05 15:15 SE 6 10.00 Overcast OVC060 55.9 32.2 41% 29.88 0.0
05 14:35 Vrbl 5 10.00 Overcast BKN047 OVC055 55.2 31.3 40% 29.9 0.0
05 14:15 Vrbl 6 10.00 Mostly Cloudy SCT050 BKN060 55.4 31.3 40% 29.91 0.0
05 13:55 S 14 G 17 10.00 Partly Cloudy SCT049 SCT075 57.7 32 38% 29.91 0.0
05 13:35 S 12 G 18 10.00 Partly Cloudy FEW046 SCT070 57 32 39% 29.91 0.0
05 13:15 W 15 G 22 10.00 A Few Clouds FEW080 56.1 33.4 42% 29.91 0.0
05 12:55 W 16 10.00 Light Rain SCT049 BKN060 54 37.4 54% 29.91 0.0
05 12:35 S 9 G 21 10.00 Rain BKN060 OVC070 51.6 36.1 56% 29.91 0.0
05 12:15 S 9 10.00 Overcast FEW046 BKN060 OVC070 55 28.6 36% 29.9 0.0
05 11:55 SE 9 10.00 Overcast BKN060 OVC075 54.9 28.4 56.1 49.1 36% 29.9 0.0
05 11:35 SE 9 10.00 Overcast OVC055 54.3 27.5 36% 29.91 0.0
05 11:15 SW 6 10.00 Overcast OVC065 54.9 27.7 35% 29.92 0.0
05 10:55 Vrbl 3 10.00 Overcast OVC070 54.5 28.8 37% 29.92 0.0
05 10:35 Vrbl 6 10.00 Overcast SCT050 OVC065 53.1 28.4 39% 29.93 0.0
05 10:15 Vrbl 3 10.00 Overcast BKN050 OVC070 52.7 28.9 40% 29.93 0.0
05 09:35 Vrbl 6 10.00 Overcast BKN055 OVC070 52 28.4 40% 29.95 0.0
05 09:15 W 6 10.00 Overcast BKN065 OVC080 52.5 27.1 38% 29.95 0.0
05 08:55 Calm 10.00 Overcast SCT065 OVC090 51.3 28.4 41% 29.95 0.0
05 08:35 Calm 10.00 Overcast FEW060 OVC085 50.9 29.1 43% 29.96 0.0
05 08:15 NW 3 10.00 Overcast OVC085 50.4 29.7 45% 29.95 0.0
05 07:55 Calm 10.00 Overcast BKN110 BKN130 OVC160 49.8 29.7 46% 29.96 0.0
05 07:35 W 8 10.00 Overcast SCT120 OVC150 50 29.3 45% 47 29.96 0.0
05 07:15 W 6 10.00 Overcast OVC140 49.6 29.8 47% 48 29.96 0.0
05 06:55 SW 5 10.00 Overcast BKN110 OVC140 50 29.5 45% 49 29.95 0.0
05 06:35 SW 6 10.00 Mostly Cloudy BKN110 BKN130 49.6 29.1 45% 48 29.95 0.0
05 06:15 W 5 10.00 Mostly Cloudy SCT140 BKN160 49.5 28.6 45% 48 29.94 0.0
05 05:55 W 8 10.00 Overcast SCT110 OVC150 50.2 28 56.8 50.2 42% 29.93 0.0
05 05:35 Vrbl 7 10.00 Overcast BKN110 OVC140 50.2 25.9 39% 29.94 0.0
05 05:15 NW 8 10.00 Overcast OVC120 50.7 25 37% 29.94 0.0
05 04:55 W 9 10.00 Overcast OVC110 50.7 25.3 37% 29.94 0.0
05 04:35 NW 12 G 18 10.00 Overcast OVC110 50.7 25.3 37% 29.93 0.0
05 04:15 NW 12 10.00 Overcast BKN110 OVC130 50.5 26.2 39% 29.93 0.0
05 03:55 NW 15 G 22 10.00 Overcast OVC140 51.1 25.7 37% 29.93 0.0
05 03:35 Calm 10.00 Overcast OVC140 51.1 25.5 37% 29.93 0.0
05 03:15 NW 5 G 18 10.00 Overcast OVC140 51.8 25.7 36% 29.94 0.0
05 02:55 NW 20 G 33 10.00 Overcast OVC130 52.7 22.6 31% 29.92 0.0
05 02:35 W 25 G 35 10.00 Overcast and Breezy OVC130 52.7 22.8 31% 29.92 0.0
05 02:15 W 20 G 32 10.00 Overcast OVC140 53.1 24.8 33% 29.94 0.0
05 01:55 W 21 G 28 10.00 Overcast and Breezy OVC150 53.6 23.7 31% 29.94 0.0
05 01:35 W 21 G 33 10.00 Overcast and Breezy OVC160 54 23.2 30% 29.95 0.0
05 01:15 W 18 G 25 10.00 Overcast OVC160 54.5 22.1 28% 29.94 0.0
05 00:55 W 16 G 26 10.00 Overcast OVC160 55 21.9 28% 29.95 0.0
05 00:35 NW 9 10.00 Overcast OVC170 55.4 21.2 26% 29.95 0.0
05 00:15 W 10 G 21 10.00 Overcast OVC170 56.1 21.6 26% 29.95 0.0
04 23:55 W 15 G 23 10.00 Overcast OVC170 57.4 21.7 65.1 57.4 25% 29.95 0.0
04 23:35 SW 14 10.00 Overcast OVC170 57.9 23 26% 29.95 0.0
04 23:15 SW 6 10.00 Mostly Cloudy BKN160 57.9 25.7 29% 29.94 0.0
04 22:55 SW 7 10.00 Overcast OVC160 58.8 25.7 28% 29.94 0.0
04 22:35 S 8 10.00 Overcast OVC160 58.8 25.2 27% 29.94 0.0
04 22:15 Vrbl 7 10.00 Overcast OVC150 59 24.4 26% 29.94 0.0
Date Time (mdt) Wind (mph) Vis. (mi.) Weather Sky Cond. Air Dwpt Max. Min. Relative Humidity Wind Chill (°F) Heat Index (°F) altimeter (in) sea level (mb) 1 hr 3 hr 6 hr
6 hour
Temperature (ºF) Pressure Precipitation (in)